Time,TemperatureF,DewpointF,PressureIn,WindDirection,WindDirectionDegrees,WindSpeedMPH,WindSpeedGustMPH,Humidity,HourlyPrecipIn,Conditions,Clouds,dailyrainin,SolarRadiationWatts/m^2,SoftwareType,DateUTC
2013-05-01 00:02:00,26.7,23.9,30.32,South,189,3.0,4.0,89,0.00,,,0.00,0,Wunderground v.1.15,2013-05-01 06:02:00,
2013-05-01 00:08:00,26.7,23.9,30.32,South,189,3.0,4.0,89,0.00,,,0.00,0,Wunderground v.1.15,2013-05-01 06:08:00,
2013-05-01 00:14:00,26.7,23.9,30.32,South,178,3.0,3.0,89,0.00,,,0.00,0,Wunderground v.1.15,2013-05-01 06:14:00,
2013-05-01 00:20:00,26.7,23.9,30.32,SE,146,3.0,6.0,89,0.00,,,0.00,0,Wunderground v.1.15,2013-05-01 06:20:00,
2013-05-01 00:26:00,26.7,23.6,30.32,SSE,147,3.0,6.0,88,0.00,,,0.00,0,Wunderground v.1.15,2013-05-01 06:26:00,
2013-05-01 00:32:00,26.6,23.5,30.33,South,184,3.0,5.0,88,0.00,,,0.00,0,Wunderground v.1.15,2013-05-01 06:32:00,
2013-05-01 00:38:00,26.6,23.5,30.33,South,186,4.0,5.0,88,0.00,,,0.00,0,Wunderground v.1.15,2013-05-01 06:38:00,
2013-05-01 00:44:00,26.6,23.5,30.33,South,184,4.0,4.0,88,0.00,,,0.00,0,Wunderground v.1.15,2013-05-01 06:44:00,
2013-05-01 00:50:00,26.6,23.5,30.33,South,184,3.0,3.0,88,0.00,,,0.00,0,Wunderground v.1.15,2013-05-01 06:50:00,
2013-05-01 00:56:00,26.5,23.4,30.33,SSW,205,3.0,4.0,88,0.00,,,0.00,0,Wunderground v.1.15,2013-05-01 06:56:00,
2013-05-01 01:02:00,26.3,23.0,30.34,SSW,202,3.0,4.0,87,0.00,,,0.00,0,Wunderground v.1.15,2013-05-01 07:02:00,
2013-05-01 01:08:00,26.3,23.2,30.34,SSW,202,2.0,4.0,88,0.00,,,0.00,0,Wunderground v.1.15,2013-05-01 07:08:00,
2013-05-01 01:14:00,26.3,23.2,30.34,SSW,202,1.0,3.0,88,0.00,,,0.00,0,Wunderground v.1.15,2013-05-01 07:14:00,
2013-05-01 01:20:00,26.3,23.2,30.34,SSW,202,1.0,1.0,88,0.00,,,0.00,0,Wunderground v.1.15,2013-05-01 07:20:00,
2013-05-01 01:26:00,26.3,23.2,30.34,SSW,202,0.0,1.0,88,0.00,,,0.00,0,Wunderground v.1.15,2013-05-01 07:26:00,
2013-05-01 01:32:00,26.3,23.2,30.34,SSW,202,0.0,0.0,88,0.00,,,0.00,0,Wunderground v.1.15,2013-05-01 07:32:00,
2013-05-01 01:38:00,26.2,22.9,30.35,SSW,202,0.0,0.0,87,0.00,,,0.00,0,Wunderground v.1.15,2013-05-01 07:38:00,
2013-05-01 01:44:00,26.2,22.9,30.35,SW,218,0.0,0.0,87,0.00,,,0.00,0,Wunderground v.1.15,2013-05-01 07:44:00,
2013-05-01 01:50:00,26.1,22.8,30.35,SW,218,0.0,0.0,87,0.00,,,0.00,0,Wunderground v.1.15,2013-05-01 07:50:00,
2013-05-01 01:56:00,26.0,22.7,30.35,SW,218,0.0,0.0,87,0.00,,,0.00,0,Wunderground v.1.15,2013-05-01 07:56:00,
2013-05-01 02:02:00,26.0,22.7,30.35,SW,217,0.0,0.0,87,0.00,,,0.00,0,Wunderground v.1.15,2013-05-01 08:02:00,
2013-05-01 02:08:00,26.0,22.7,30.35,SW,217,0.0,0.0,87,0.00,,,0.00,0,Wunderground v.1.15,2013-05-01 08:08:00,
2013-05-01 02:14:00,26.0,22.7,30.36,SW,217,0.0,0.0,87,0.00,,,0.00,0,Wunderground v.1.15,2013-05-01 08:14:00,
2013-05-01 02:20:00,26.0,22.7,30.36,SW,217,0.0,0.0,87,0.00,,,0.00,0,Wunderground v.1.15,2013-05-01 08:20:00,
2013-05-01 02:26:00,25.8,22.5,30.36,SSE,163,2.0,4.0,87,0.00,,,0.00,0,Wunderground v.1.15,2013-05-01 08:26:00,
2013-05-01 02:32:00,25.6,22.0,30.36,SSE,163,3.0,3.0,86,0.00,,,0.00,0,Wunderground v.1.15,2013-05-01 08:32:00,
2013-05-01 02:38:00,25.2,21.3,30.37,SSE,163,2.0,4.0,85,0.00,,,0.00,0,Wunderground v.1.15,2013-05-01 08:38:00,
2013-05-01 02:44:00,25.0,20.8,30.37,SSE,163,1.0,2.0,84,0.00,,,0.00,0,Wunderground v.1.15,2013-05-01 08:44:00,
2013-05-01 02:50:00,24.8,20.9,30.37,SSE,163,0.0,0.0,85,0.00,,,0.00,0,Wunderground v.1.15,2013-05-01 08:50:00,
2013-05-01 02:58:00,24.6,20.5,30.37,SSE,163,0.0,0.0,84,0.00,,,0.00,0,Wunderground v.1.15,2013-05-01 08:58:00,
2013-05-01 03:04:00,24.5,20.4,30.37,SSE,163,0.0,0.0,84,0.00,,,0.00,0,Wunderground v.1.15,2013-05-01 09:04:00,
2013-05-01 03:10:00,24.4,20.3,30.37,SSE,163,0.0,0.0,84,0.00,,,0.00,0,Wunderground v.1.15,2013-05-01 09:10:00,
2013-05-01 03:16:00,24.3,20.2,30.38,SSE,163,0.0,0.0,84,0.00,,,0.00,0,Wunderground v.1.15,2013-05-01 09:16:00,
2013-05-01 03:22:00,24.2,20.1,30.38,SSE,163,0.0,0.0,84,0.00,,,0.00,0,Wunderground v.1.15,2013-05-01 09:22:00,
2013-05-01 03:28:00,24.0,19.6,30.38,SSE,163,0.0,1.0,83,0.00,,,0.00,0,Wunderground v.1.15,2013-05-01 09:28:00,
2013-05-01 03:34:00,23.9,19.5,30.38,SSE,163,0.0,0.0,83,0.00,,,0.00,0,Wunderground v.1.15,2013-05-01 09:34:00,
2013-05-01 03:40:00,23.8,19.1,30.39,SSE,163,0.0,0.0,82,0.00,,,0.00,0,Wunderground v.1.15,2013-05-01 09:40:00,
2013-05-01 03:46:00,23.6,19.2,30.39,SSE,163,0.0,1.0,83,0.00,,,0.00,0,Wunderground v.1.15,2013-05-01 09:46:00,
2013-05-01 03:52:00,23.5,19.1,30.39,SSE,163,0.0,0.0,83,0.00,,,0.00,0,Wunderground v.1.15,2013-05-01 09:52:00,
2013-05-01 03:58:00,23.4,19.0,30.40,SSE,163,0.0,0.0,83,0.00,,,0.00,0,Wunderground v.1.15,2013-05-01 09:58:00,
2013-05-01 04:04:00,23.3,18.9,30.40,SSE,163,0.0,0.0,83,0.00,,,0.00,0,Wunderground v.1.15,2013-05-01 10:04:00,
2013-05-01 04:10:00,23.1,18.4,30.40,SSE,163,0.0,0.0,82,0.00,,,0.00,0,Wunderground v.1.15,2013-05-01 10:10:00,
2013-05-01 04:16:00,22.9,18.2,30.41,SSE,163,0.0,0.0,82,0.00,,,0.00,0,Wunderground v.1.15,2013-05-01 10:16:00,
2013-05-01 04:22:00,22.7,18.0,30.41,SSE,163,0.0,0.0,82,0.00,,,0.00,0,Wunderground v.1.15,2013-05-01 10:22:00,
2013-05-01 04:28:00,22.5,17.8,30.41,SSE,163,0.0,1.0,82,0.00,,,0.00,0,Wunderground v.1.15,2013-05-01 10:28:00,
2013-05-01 04:34:00,22.4,18.0,30.41,SSE,163,0.0,0.0,83,0.00,,,0.00,0,Wunderground v.1.15,2013-05-01 10:34:00,
2013-05-01 04:42:00,22.3,17.9,30.42,SSE,163,0.0,0.0,83,0.00,,,0.00,0,Wunderground v.1.15,2013-05-01 10:42:00,
2013-05-01 04:48:00,22.1,17.4,30.42,SSE,163,0.0,0.0,82,0.00,,,0.00,0,Wunderground v.1.15,2013-05-01 10:48:00,
2013-05-01 04:54:00,21.9,17.2,30.43,SSE,163,0.0,0.0,82,0.00,,,0.00,0,Wunderground v.1.15,2013-05-01 10:54:00,
2013-05-01 05:00:00,21.5,16.6,30.43,SSE,163,0.0,0.0,81,0.00,,,0.00,0,Wunderground v.1.15,2013-05-01 11:00:00,
2013-05-01 05:06:00,21.2,16.3,30.43,SSE,163,0.0,0.0,81,0.00,,,0.00,0,Wunderground v.1.15,2013-05-01 11:06:00,
2013-05-01 05:12:00,20.8,16.2,30.44,SSE,163,0.0,0.0,82,0.00,,,0.00,0,Wunderground v.1.15,2013-05-01 11:12:00,
2013-05-01 05:18:00,20.6,16.0,30.44,SSE,163,0.0,0.0,82,0.00,,,0.00,0,Wunderground v.1.15,2013-05-01 11:18:00,
2013-05-01 05:28:00,20.3,16.0,30.44,SSE,163,0.0,0.0,83,0.00,,,0.00,0,Wunderground v.1.15,2013-05-01 11:28:00,
2013-05-01 05:34:00,20.2,15.9,30.44,SSE,163,0.0,0.0,83,0.00,,,0.00,0,Wunderground v.1.15,2013-05-01 11:34:00,
2013-05-01 05:40:00,19.7,14.8,30.45,SSE,163,0.0,0.0,81,0.00,,,0.00,0,Wunderground v.1.15,2013-05-01 11:40:00,
2013-05-01 05:48:00,19.5,14.9,30.45,SSE,163,0.0,0.0,82,0.00,,,0.00,0,Wunderground v.1.15,2013-05-01 11:48:00,
2013-05-01 05:54:00,19.3,15.0,30.46,SSE,163,0.0,1.0,83,0.00,,,0.00,0,Wunderground v.1.15,2013-05-01 11:54:00,
2013-05-01 06:00:00,19.3,15.3,30.46,SSE,163,0.0,0.0,84,0.00,,,0.00,0,Wunderground v.1.15,2013-05-01 12:00:00,
2013-05-01 06:08:00,19.3,15.5,30.46,SSE,163,0.0,0.0,85,0.00,,,0.00,0,Wunderground v.1.15,2013-05-01 12:08:00,
2013-05-01 06:16:00,19.3,15.5,30.47,SSE,163,0.0,0.0,85,0.00,,,0.00,0,Wunderground v.1.15,2013-05-01 12:16:00,
2013-05-01 06:22:00,19.4,15.6,30.47,SSE,163,0.0,0.0,85,0.00,,,0.00,5,Wunderground v.1.15,2013-05-01 12:22:00,
2013-05-01 06:28:00,19.5,16.0,30.47,SSE,163,0.0,0.0,86,0.00,,,0.00,11,Wunderground v.1.15,2013-05-01 12:28:00,
2013-05-01 06:34:00,19.5,16.0,30.47,SSE,163,0.0,0.0,86,0.00,,,0.00,18,Wunderground v.1.15,2013-05-01 12:34:00,
2013-05-01 06:40:00,19.6,16.1,30.48,SSE,163,0.0,0.0,86,0.00,,,0.00,26,Wunderground v.1.15,2013-05-01 12:40:00,
2013-05-01 06:48:00,19.8,16.6,30.48,SSE,163,0.0,0.0,87,0.00,,,0.00,33,Wunderground v.1.15,2013-05-01 12:48:00,
2013-05-01 06:54:00,20.1,17.1,30.48,SSE,163,0.0,0.0,88,0.00,,,0.00,40,Wunderground v.1.15,2013-05-01 12:54:00,
2013-05-01 07:02:00,20.4,17.4,30.49,SSE,163,0.0,0.0,88,0.00,,,0.00,56,Wunderground v.1.15,2013-05-01 13:02:00,
2013-05-01 07:08:00,20.7,17.7,30.49,SSE,163,0.0,1.0,88,0.00,,,0.00,62,Wunderground v.1.15,2013-05-01 13:08:00,
2013-05-01 07:14:00,20.9,17.9,30.49,SSE,163,1.0,3.0,88,0.00,,,0.00,72,Wunderground v.1.15,2013-05-01 13:14:00,
2013-05-01 07:20:00,21.2,18.2,30.50,SSE,163,1.0,3.0,88,0.00,,,0.00,74,Wunderground v.1.15,2013-05-01 13:20:00,
2013-05-01 07:26:00,21.4,18.4,30.50,SSE,163,0.0,1.0,88,0.00,,,0.00,79,Wunderground v.1.15,2013-05-01 13:26:00,
2013-05-01 07:32:00,21.7,18.7,30.50,SSE,163,0.0,1.0,88,0.00,,,0.00,97,Wunderground v.1.15,2013-05-01 13:32:00,
2013-05-01 07:38:00,22.0,19.3,30.51,SSE,163,0.0,1.0,89,0.00,,,0.00,86,Wunderground v.1.15,2013-05-01 13:38:00,
2013-05-01 07:44:00,22.5,19.7,30.51,SSE,163,0.0,0.0,89,0.00,,,0.00,84,Wunderground v.1.15,2013-05-01 13:44:00,
2013-05-01 07:50:00,22.9,20.1,30.51,SSE,163,0.0,0.0,89,0.00,,,0.00,121,Wunderground v.1.15,2013-05-01 13:50:00,
2013-05-01 07:56:00,23.4,20.6,30.52,SSE,163,0.0,0.0,89,0.00,,,0.00,158,Wunderground v.1.15,2013-05-01 13:56:00,
2013-05-01 08:02:00,24.1,21.3,30.52,SE,144,1.0,4.0,89,0.00,,,0.00,176,Wunderground v.1.15,2013-05-01 14:02:00,
2013-05-01 08:08:00,24.8,21.8,30.53,ESE,115,3.0,4.0,88,0.00,,,0.00,188,Wunderground v.1.15,2013-05-01 14:08:00,
2013-05-01 08:14:00,25.3,22.0,30.53,ESE,108,3.0,4.0,87,0.00,,,0.00,200,Wunderground v.1.15,2013-05-01 14:14:00,
2013-05-01 08:22:00,25.9,22.3,30.53,ESE,105,3.0,3.0,86,0.00,,,0.00,211,Wunderground v.1.15,2013-05-01 14:22:00,
2013-05-01 08:28:00,26.3,22.1,30.54,East,94,3.0,5.0,84,0.00,,,0.00,232,Wunderground v.1.15,2013-05-01 14:28:00,
2013-05-01 08:34:00,26.8,22.6,30.53,East,92,3.0,5.0,84,0.00,,,0.00,260,Wunderground v.1.15,2013-05-01 14:34:00,
2013-05-01 08:40:00,27.1,22.6,30.54,East,92,2.0,2.0,83,0.00,,,0.00,304,Wunderground v.1.15,2013-05-01 14:40:00,
2013-05-01 08:46:00,27.7,23.2,30.54,East,90,2.0,5.0,83,0.00,,,0.00,415,Wunderground v.1.15,2013-05-01 14:46:00,
2013-05-01 08:52:00,28.3,23.8,30.55,East,90,3.0,3.0,83,0.00,,,0.00,264,Wunderground v.1.15,2013-05-01 14:52:00,
2013-05-01 08:58:00,28.8,24.0,30.55,East,90,3.0,3.0,82,0.00,,,0.00,243,Wunderground v.1.15,2013-05-01 14:58:00,
2013-05-01 09:04:00,29.1,24.0,30.55,East,90,2.0,3.0,81,0.00,,,0.00,221,Wunderground v.1.15,2013-05-01 15:04:00,
2013-05-01 09:10:00,29.5,24.4,30.55,East,90,0.0,3.0,81,0.00,,,0.00,285,Wunderground v.1.15,2013-05-01 15:10:00,
2013-05-01 09:16:00,30.0,24.6,30.55,East,90,0.0,3.0,80,0.00,,,0.00,308,Wunderground v.1.15,2013-05-01 15:16:00,
2013-05-01 09:22:00,30.4,25.0,30.55,East,90,0.0,1.0,80,0.00,,,0.01,492,Wunderground v.1.15,2013-05-01 15:22:00,
2013-05-01 09:28:00,31.1,25.0,30.55,East,90,0.0,2.0,78,0.00,,,0.01,359,Wunderground v.1.15,2013-05-01 15:28:00,
2013-05-01 09:34:00,31.6,25.2,30.55,East,90,0.0,0.0,77,0.00,,,0.01,557,Wunderground v.1.15,2013-05-01 15:34:00,
2013-05-01 09:42:00,32.5,25.8,30.56,East,90,0.0,0.0,76,0.00,,,0.01,585,Wunderground v.1.15,2013-05-01 15:42:00,
2013-05-01 09:48:00,33.1,26.7,30.56,ESE,105,1.0,4.0,77,0.00,,,0.01,606,Wunderground v.1.15,2013-05-01 15:48:00,
2013-05-01 09:54:00,33.8,26.7,30.56,ESE,105,2.0,3.0,75,0.00,,,0.01,621,Wunderground v.1.15,2013-05-01 15:54:00,
2013-05-01 10:00:00,34.3,27.2,30.56,WSW,237,2.0,2.0,75,0.00,,,0.01,638,Wunderground v.1.15,2013-05-01 16:00:00,
2013-05-01 10:12:00,35.4,27.3,30.56,SW,236,2.0,2.0,72,0.00,,,0.01,682,Wunderground v.1.15,2013-05-01 16:12:00,
2013-05-01 10:18:00,36.1,28.3,30.56,WSW,238,2.0,2.0,73,0.00,,,0.01,705,Wunderground v.1.15,2013-05-01 16:18:00,
2013-05-01 10:24:00,36.7,27.5,30.57,WSW,242,3.0,5.0,69,0.00,,,0.01,729,Wunderground v.1.15,2013-05-01 16:24:00,
2013-05-01 10:30:00,36.9,26.6,30.57,WSW,238,2.0,5.0,66,0.00,,,0.01,763,Wunderground v.1.15,2013-05-01 16:30:00,
2013-05-01 10:36:00,37.4,27.8,30.57,SSW,201,2.0,4.0,68,0.00,,,0.01,773,Wunderground v.1.15,2013-05-01 16:36:00,
2013-05-01 10:42:00,37.6,24.6,30.57,SE,139,3.0,3.0,59,0.00,,,0.01,276,Wunderground v.1.15,2013-05-01 16:42:00,
2013-05-01 10:48:00,37.7,25.1,30.57,ESE,112,3.0,6.0,60,0.00,,,0.01,784,Wunderground v.1.15,2013-05-01 16:48:00,
2013-05-01 10:54:00,37.7,25.8,30.57,SW,223,3.0,4.0,62,0.00,,,0.01,795,Wunderground v.1.15,2013-05-01 16:54:00,
2013-05-01 11:00:00,38.2,25.1,30.57,SW,223,1.0,4.0,59,0.00,,,0.01,824,Wunderground v.1.15,2013-05-01 17:00:00,
2013-05-01 11:06:00,39.0,27.1,30.57,WSW,245,3.0,7.0,62,0.00,,,0.01,942,Wunderground v.1.15,2013-05-01 17:06:00,
2013-05-01 11:12:00,39.5,25.5,30.57,West,275,3.0,4.0,57,0.00,,,0.01,1023,Wunderground v.1.15,2013-05-01 17:12:00,
2013-05-01 11:18:00,40.0,24.2,30.57,West,268,4.0,6.0,53,0.00,,,0.01,1130,Wunderground v.1.15,2013-05-01 17:18:00,
2013-05-01 11:24:00,39.7,22.6,30.57,WNW,288,4.0,7.0,50,0.00,,,0.01,364,Wunderground v.1.15,2013-05-01 17:24:00,
2013-05-01 11:30:00,38.9,24.1,30.58,SW,230,5.0,6.0,55,0.00,,,0.01,487,Wunderground v.1.15,2013-05-01 17:30:00,
2013-05-01 11:36:00,38.8,24.0,30.58,WNW,290,5.0,6.0,55,0.00,,,0.01,459,Wunderground v.1.15,2013-05-01 17:36:00,
2013-05-01 11:42:00,39.0,24.2,30.58,West,279,5.0,6.0,55,0.00,,,0.01,513,Wunderground v.1.15,2013-05-01 17:42:00,
2013-05-01 11:48:00,39.6,23.4,30.58,NW,311,4.0,6.0,52,0.00,,,0.01,937,Wunderground v.1.15,2013-05-01 17:48:00,
2013-05-01 11:54:00,40.4,23.7,30.58,SW,224,3.0,6.0,51,0.00,,,0.01,998,Wunderground v.1.15,2013-05-01 17:54:00,
2013-05-01 12:00:00,41.2,24.4,30.58,SW,236,4.0,4.0,51,0.00,,,0.01,1102,Wunderground v.1.15,2013-05-01 18:00:00,
2013-05-01 12:06:00,42.2,23.9,30.58,West,281,3.0,6.0,48,0.00,,,0.01,1202,Wunderground v.1.15,2013-05-01 18:06:00,
2013-05-01 12:12:00,42.6,23.8,30.58,SW,218,4.0,4.0,47,0.00,,,0.01,443,Wunderground v.1.15,2013-05-01 18:12:00,
2013-05-01 12:18:00,42.4,22.5,30.58,WSW,248,3.0,5.0,45,0.00,,,0.01,496,Wunderground v.1.15,2013-05-01 18:18:00,
2013-05-01 12:24:00,42.3,24.5,30.58,SW,217,4.0,11.0,49,0.00,,,0.01,1121,Wunderground v.1.15,2013-05-01 18:24:00,
2013-05-01 12:30:00,42.4,25.1,30.58,West,281,4.0,4.0,50,0.00,,,0.01,1118,Wunderground v.1.15,2013-05-01 18:30:00,
2013-05-01 12:36:00,42.4,23.1,30.58,WNW,296,3.0,4.0,46,0.00,,,0.01,452,Wunderground v.1.15,2013-05-01 18:36:00,
2013-05-01 12:42:00,42.3,23.5,30.58,SSW,194,3.0,5.0,47,0.00,,,0.01,483,Wunderground v.1.15,2013-05-01 18:42:00,
2013-05-01 12:48:00,42.1,23.3,30.58,SSW,211,4.0,6.0,47,0.00,,,0.01,429,Wunderground v.1.15,2013-05-01 18:48:00,
2013-05-01 12:54:00,41.8,20.9,30.58,West,266,4.0,6.0,43,0.00,,,0.01,334,Wunderground v.1.15,2013-05-01 18:54:00,
2013-05-01 13:00:00,41.5,23.2,30.58,SSW,213,2.0,5.0,48,0.00,,,0.01,598,Wunderground v.1.15,2013-05-01 19:00:00,
2013-05-01 13:06:00,42.0,21.6,30.58,WSW,248,4.0,10.0,44,0.00,,,0.01,1053,Wunderground v.1.15,2013-05-01 19:06:00,
2013-05-01 13:12:00,42.1,21.2,30.58,SW,235,7.0,8.0,43,0.00,,,0.01,406,Wunderground v.1.15,2013-05-01 19:12:00,
2013-05-01 13:18:00,42.1,22.3,30.58,WSW,254,6.0,8.0,45,0.00,,,0.01,1081,Wunderground v.1.15,2013-05-01 19:18:00,
2013-05-01 13:24:00,42.7,22.3,30.58,SW,229,6.0,7.0,44,0.00,,,0.01,1058,Wunderground v.1.15,2013-05-01 19:24:00,
2013-05-01 13:30:00,43.3,20.6,30.58,West,269,5.0,5.0,40,0.00,,,0.01,1153,Wunderground v.1.15,2013-05-01 19:30:00,
2013-05-01 13:36:00,43.7,21.5,30.58,WSW,258,6.0,11.0,41,0.00,,,0.01,847,Wunderground v.1.15,2013-05-01 19:36:00,
2013-05-01 13:42:00,43.6,20.8,30.57,SW,223,8.0,11.0,40,0.00,,,0.01,478,Wunderground v.1.15,2013-05-01 19:42:00,
2013-05-01 13:48:00,43.4,21.2,30.58,WSW,240,7.0,11.0,41,0.00,,,0.01,445,Wunderground v.1.15,2013-05-01 19:48:00,
2013-05-01 13:54:00,43.2,21.1,30.58,WSW,246,6.0,6.0,41,0.00,,,0.01,1056,Wunderground v.1.15,2013-05-01 19:54:00,
2013-05-01 14:00:00,43.3,20.6,30.57,WNW,289,5.0,5.0,40,0.00,,,0.01,1042,Wunderground v.1.15,2013-05-01 20:00:00,
2013-05-01 14:06:00,43.8,21.6,30.57,West,269,6.0,14.0,41,0.00,,,0.01,932,Wunderground v.1.15,2013-05-01 20:06:00,
2013-05-01 14:12:00,44.9,22.0,30.57,WSW,242,6.0,7.0,40,0.00,,,0.01,1004,Wunderground v.1.15,2013-05-01 20:12:00,
2013-05-01 14:18:00,45.8,21.6,30.57,West,262,7.0,13.0,38,0.00,,,0.01,988,Wunderground v.1.15,2013-05-01 20:18:00,
2013-05-01 14:24:00,45.5,20.1,30.57,WNW,293,6.0,7.0,36,0.00,,,0.01,1011,Wunderground v.1.15,2013-05-01 20:24:00,
2013-05-01 14:30:00,45.4,20.0,30.57,WSW,242,5.0,7.0,36,0.00,,,0.01,355,Wunderground v.1.15,2013-05-01 20:30:00,
2013-05-01 14:36:00,45.4,21.2,30.58,SW,225,6.0,9.0,38,0.00,,,0.01,1014,Wunderground v.1.15,2013-05-01 20:36:00,
2013-05-01 14:42:00,46.1,21.2,30.58,WSW,248,6.0,7.0,37,0.00,,,0.01,1020,Wunderground v.1.15,2013-05-01 20:42:00,
2013-05-01 14:48:00,46.0,19.8,30.58,WSW,254,6.0,10.0,35,0.00,,,0.01,912,Wunderground v.1.15,2013-05-01 20:48:00,
2013-05-01 14:54:00,46.0,20.5,30.58,WSW,252,7.0,7.0,36,0.00,,,0.01,585,Wunderground v.1.15,2013-05-01 20:54:00,
2013-05-01 15:00:00,45.5,19.4,30.58,WSW,252,7.0,11.0,35,0.00,,,0.01,919,Wunderground v.1.15,2013-05-01 21:00:00,
2013-05-01 15:06:00,45.1,21.0,30.57,WSW,256,8.0,11.0,38,0.00,,,0.01,821,Wunderground v.1.15,2013-05-01 21:06:00,
2013-05-01 15:12:00,45.4,21.2,30.58,SSW,204,8.0,8.0,38,0.00,,,0.01,868,Wunderground v.1.15,2013-05-01 21:12:00,
2013-05-01 15:18:00,46.0,21.8,30.58,West,276,6.0,8.0,38,0.00,,,0.01,944,Wunderground v.1.15,2013-05-01 21:18:00,
2013-05-01 15:24:00,46.3,20.8,30.57,WSW,250,6.0,11.0,36,0.00,,,0.01,844,Wunderground v.1.15,2013-05-01 21:24:00,
2013-05-01 15:30:00,46.1,20.6,30.57,WSW,243,7.0,11.0,36,0.00,,,0.01,791,Wunderground v.1.15,2013-05-01 21:30:00,
2013-05-01 15:36:00,45.8,21.0,30.57,SW,224,7.0,11.0,37,0.00,,,0.01,828,Wunderground v.1.15,2013-05-01 21:36:00,
2013-05-01 15:42:00,46.1,19.9,30.57,WNW,288,6.0,7.0,35,0.00,,,0.01,926,Wunderground v.1.15,2013-05-01 21:42:00,
2013-05-01 15:48:00,46.3,20.1,30.57,SW,227,5.0,9.0,35,0.00,,,0.01,875,Wunderground v.1.15,2013-05-01 21:48:00,
2013-05-01 15:54:00,46.9,20.0,30.57,SW,223,6.0,6.0,34,0.00,,,0.01,814,Wunderground v.1.15,2013-05-01 21:54:00,
2013-05-01 16:00:00,47.1,20.8,30.57,WSW,246,6.0,6.0,35,0.00,,,0.01,854,Wunderground v.1.15,2013-05-01 22:00:00,
2013-05-01 16:06:00,47.5,20.5,30.57,West,276,4.0,6.0,34,0.00,,,0.01,803,Wunderground v.1.15,2013-05-01 22:06:00,
2013-05-01 16:12:00,47.5,19.8,30.57,WSW,237,5.0,6.0,33,0.00,,,0.01,782,Wunderground v.1.15,2013-05-01 22:12:00,
2013-05-01 16:18:00,47.6,20.6,30.57,West,275,7.0,10.0,34,0.00,,,0.01,800,Wunderground v.1.15,2013-05-01 22:18:00,
2013-05-01 16:24:00,47.6,19.2,30.57,WSW,246,7.0,10.0,32,0.00,,,0.01,784,Wunderground v.1.15,2013-05-01 22:24:00,
2013-05-01 16:30:00,47.7,20.0,30.57,SSW,210,5.0,8.0,33,0.00,,,0.01,768,Wunderground v.1.15,2013-05-01 22:30:00,
2013-05-01 16:36:00,48.2,20.4,30.57,SSE,162,5.0,11.0,33,0.00,,,0.01,708,Wunderground v.1.15,2013-05-01 22:36:00,
2013-05-01 16:42:00,48.6,20.0,30.56,SSW,202,6.0,11.0,32,0.00,,,0.01,707,Wunderground v.1.15,2013-05-01 22:42:00,
2013-05-01 16:48:00,48.2,19.7,30.57,SSW,205,6.0,11.0,32,0.00,,,0.01,345,Wunderground v.1.15,2013-05-01 22:48:00,
2013-05-01 16:54:00,47.7,18.5,30.57,WNW,292,4.0,5.0,31,0.00,,,0.01,740,Wunderground v.1.15,2013-05-01 22:54:00,
2013-05-01 17:00:00,47.5,17.6,30.56,WSW,246,5.0,10.0,30,0.00,,,0.01,396,Wunderground v.1.15,2013-05-01 23:00:00,
2013-05-01 17:06:00,47.3,16.6,30.56,SW,227,7.0,10.0,29,0.00,,,0.01,265,Wunderground v.1.15,2013-05-01 23:06:00,
2013-05-01 17:12:00,46.7,16.9,30.57,SSW,194,7.0,7.0,30,0.00,,,0.01,352,Wunderground v.1.15,2013-05-01 23:12:00,
2013-05-01 17:18:00,46.6,17.5,30.57,West,263,5.0,7.0,31,0.00,,,0.01,446,Wunderground v.1.15,2013-05-01 23:18:00,
2013-05-01 17:24:00,46.5,15.9,30.56,SW,235,7.0,7.0,29,0.00,,,0.01,186,Wunderground v.1.15,2013-05-01 23:24:00,
2013-05-01 17:30:00,46.3,14.9,30.57,SSW,205,6.0,6.0,28,0.00,,,0.01,197,Wunderground v.1.15,2013-05-01 23:30:00,
2013-05-01 17:36:00,46.5,17.4,30.58,SSW,206,5.0,10.0,31,0.00,,,0.01,176,Wunderground v.1.15,2013-05-01 23:36:00,
2013-05-01 17:42:00,46.3,16.5,30.57,West,259,4.0,4.0,30,0.00,,,0.01,148,Wunderground v.1.15,2013-05-01 23:42:00,
2013-05-01 17:48:00,45.8,16.1,30.57,WSW,249,3.0,4.0,30,0.00,,,0.01,163,Wunderground v.1.15,2013-05-01 23:48:00,
2013-05-01 17:54:00,45.3,17.1,30.58,WSW,255,3.0,6.0,32,0.00,,,0.01,341,Wunderground v.1.15,2013-05-01 23:54:00,
2013-05-01 18:00:00,45.5,18.7,30.58,SW,223,7.0,7.0,34,0.00,,,0.01,564,Wunderground v.1.15,2013-05-02 00:00:00,
2013-05-01 18:06:00,46.0,17.7,30.58,SW,223,8.0,8.0,32,0.00,,,0.01,522,Wunderground v.1.15,2013-05-02 00:06:00,
2013-05-01 18:12:00,46.1,14.8,30.58,SSW,209,10.0,17.0,28,0.00,,,0.01,113,Wunderground v.1.15,2013-05-02 00:12:00,
2013-05-01 18:18:00,45.6,16.7,30.58,WSW,239,9.0,17.0,31,0.00,,,0.01,179,Wunderground v.1.15,2013-05-02 00:18:00,
2013-05-01 18:24:00,45.4,14.9,30.58,SW,218,7.0,7.0,29,0.00,,,0.01,105,Wunderground v.1.15,2013-05-02 00:24:00,
2013-05-01 18:30:00,45.2,16.3,30.58,SW,222,7.0,7.0,31,0.00,,,0.01,436,Wunderground v.1.15,2013-05-02 00:30:00,
2013-05-01 18:36:00,45.9,16.2,30.58,SW,214,8.0,12.0,30,0.00,,,0.01,420,Wunderground v.1.15,2013-05-02 00:36:00,
2013-05-01 18:42:00,46.5,15.9,30.58,SSW,194,9.0,10.0,29,0.00,,,0.01,399,Wunderground v.1.15,2013-05-02 00:42:00,
2013-05-01 18:48:00,47.2,16.5,30.58,SW,227,6.0,10.0,29,0.00,,,0.01,359,Wunderground v.1.15,2013-05-02 00:48:00,
2013-05-01 18:54:00,47.5,16.0,30.59,SW,215,9.0,15.0,28,0.00,,,0.01,329,Wunderground v.1.15,2013-05-02 00:54:00,
2013-05-01 19:00:00,47.5,16.8,30.59,SW,217,11.0,11.0,29,0.00,,,0.01,302,Wunderground v.1.15,2013-05-02 01:00:00,
2013-05-01 19:06:00,47.4,15.9,30.59,SW,221,10.0,11.0,28,0.00,,,0.01,271,Wunderground v.1.15,2013-05-02 01:06:00,
2013-05-01 19:12:00,47.1,16.4,30.59,SSW,192,10.0,10.0,29,0.00,,,0.01,113,Wunderground v.1.15,2013-05-02 01:12:00,
2013-05-01 19:18:00,46.4,15.8,30.59,SSW,200,11.0,12.0,29,0.00,,,0.01,216,Wunderground v.1.15,2013-05-02 01:18:00,
2013-05-01 19:24:00,45.8,15.3,30.59,South,186,10.0,13.0,29,0.00,,,0.01,128,Wunderground v.1.15,2013-05-02 01:24:00,
2013-05-01 19:30:00,44.9,15.3,30.59,SSW,198,9.0,9.0,30,0.00,,,0.01,47,Wunderground v.1.15,2013-05-02 01:30:00,
2013-05-01 19:36:00,44.1,16.1,30.59,SSW,210,8.0,12.0,32,0.00,,,0.01,98,Wunderground v.1.15,2013-05-02 01:36:00,
2013-05-01 19:42:00,43.5,16.3,30.59,SSW,196,8.0,8.0,33,0.00,,,0.01,40,Wunderground v.1.15,2013-05-02 01:42:00,
2013-05-01 19:48:00,42.9,17.1,30.60,SSW,198,7.0,8.0,35,0.00,,,0.01,40,Wunderground v.1.15,2013-05-02 01:48:00,
2013-05-01 19:54:00,42.4,17.3,30.60,SSW,201,7.0,10.0,36,0.00,,,0.01,65,Wunderground v.1.15,2013-05-02 01:54:00,
2013-05-01 20:00:00,42.2,19.0,30.60,SSW,211,6.0,7.0,39,0.00,,,0.01,69,Wunderground v.1.15,2013-05-02 02:00:00,
2013-05-01 20:06:00,42.1,18.9,30.60,WSW,240,6.0,7.0,39,0.00,,,0.01,53,Wunderground v.1.15,2013-05-02 02:06:00,
2013-05-01 20:12:00,42.0,18.8,30.60,SW,229,7.0,8.0,39,0.00,,,0.01,39,Wunderground v.1.15,2013-05-02 02:12:00,
2013-05-01 20:18:00,41.8,18.6,30.61,SW,227,7.0,8.0,39,0.00,,,0.01,28,Wunderground v.1.15,2013-05-02 02:18:00,
2013-05-01 20:24:00,41.6,19.6,30.60,SSW,213,7.0,12.0,41,0.00,,,0.01,18,Wunderground v.1.15,2013-05-02 02:24:00,
2013-05-01 20:30:00,41.1,19.7,30.60,WSW,237,7.0,7.0,42,0.00,,,0.01,12,Wunderground v.1.15,2013-05-02 02:30:00,
2013-05-01 20:36:00,40.6,19.8,30.61,SSW,205,8.0,8.0,43,0.00,,,0.01,7,Wunderground v.1.15,2013-05-02 02:36:00,
2013-05-01 20:42:00,40.1,20.4,30.61,WSW,242,8.0,9.0,45,0.00,,,0.01,5,Wunderground v.1.15,2013-05-02 02:42:00,
2013-05-01 20:48:00,39.8,20.2,30.61,WSW,238,7.0,9.0,45,0.00,,,0.01,0,Wunderground v.1.15,2013-05-02 02:48:00,
2013-05-01 20:54:00,39.4,20.3,30.61,WSW,254,7.0,11.0,46,0.00,,,0.01,0,Wunderground v.1.15,2013-05-02 02:54:00,
2013-05-01 21:00:00,39.1,19.0,30.62,WSW,257,5.0,5.0,44,0.00,,,0.01,0,Wunderground v.1.15,2013-05-02 03:00:00,
2013-05-01 21:06:00,38.4,17.3,30.62,WSW,251,3.0,7.0,42,0.00,,,0.01,0,Wunderground v.1.15,2013-05-02 03:06:00,
2013-05-01 21:12:00,37.8,17.3,30.62,WSW,251,3.0,3.0,43,0.00,,,0.01,0,Wunderground v.1.15,2013-05-02 03:12:00,
2013-05-01 21:18:00,37.1,16.6,30.62,WSW,254,2.0,3.0,43,0.00,,,0.01,0,Wunderground v.1.15,2013-05-02 03:18:00,
2013-05-01 21:24:00,36.2,16.4,30.63,West,277,3.0,4.0,44,0.00,,,0.01,0,Wunderground v.1.15,2013-05-02 03:24:00,
2013-05-01 21:30:00,35.7,17.4,30.63,West,277,3.0,3.0,47,0.00,,,0.01,0,Wunderground v.1.15,2013-05-02 03:30:00,
2013-05-01 21:36:00,35.4,18.6,30.63,West,277,1.0,3.0,50,0.00,,,0.01,0,Wunderground v.1.15,2013-05-02 03:36:00,
2013-05-01 21:42:00,35.2,19.3,30.64,West,277,0.0,0.0,52,0.00,,,0.01,0,Wunderground v.1.15,2013-05-02 03:42:00,
2013-05-01 21:48:00,34.7,17.9,30.64,West,277,1.0,2.0,50,0.00,,,0.01,0,Wunderground v.1.15,2013-05-02 03:48:00,
2013-05-01 21:54:00,33.9,17.7,30.64,NNE,22,3.0,4.0,51,0.00,,,0.01,0,Wunderground v.1.15,2013-05-02 03:54:00,
2013-05-01 22:00:00,33.1,17.4,30.64,NNE,22,3.0,3.0,52,0.00,,,0.01,0,Wunderground v.1.15,2013-05-02 04:00:00,
2013-05-01 22:02:00,32.8,17.1,30.64,NNE,22,2.0,3.0,52,0.00,,,0.01,0,Wunderground v.1.15,2013-05-02 04:02:00,
2013-05-01 22:04:00,32.6,16.9,30.65,NNE,22,2.0,3.0,52,0.00,,,0.01,0,Wunderground v.1.15,2013-05-02 04:04:00,
2013-05-01 22:10:00,32.2,18.2,30.65,NNE,22,1.0,1.0,56,0.00,,,0.01,0,Wunderground v.1.15,2013-05-02 04:10:00,
2013-05-01 22:16:00,31.8,17.0,30.65,NNE,22,0.0,1.0,54,0.00,,,0.01,0,Wunderground v.1.15,2013-05-02 04:16:00,
2013-05-01 22:20:00,31.4,17.1,30.65,NNE,22,1.0,4.0,55,0.00,,,0.01,0,Wunderground v.1.15,2013-05-02 04:20:00,
2013-05-01 22:26:00,30.8,15.7,30.65,NNE,22,2.0,4.0,53,0.00,,,0.01,0,Wunderground v.1.15,2013-05-02 04:26:00,
2013-05-01 22:32:00,30.3,16.5,30.65,NNE,22,1.0,2.0,56,0.00,,,0.01,0,Wunderground v.1.15,2013-05-02 04:32:00,
2013-05-01 22:36:00,30.1,16.3,30.65,NNE,22,1.0,2.0,56,0.00,,,0.01,0,Wunderground v.1.15,2013-05-02 04:36:00,
2013-05-01 22:42:00,29.7,16.3,30.65,NNE,22,1.0,1.0,57,0.00,,,0.01,0,Wunderground v.1.15,2013-05-02 04:42:00,
2013-05-01 22:48:00,29.5,16.5,30.65,NNE,22,1.0,3.0,58,0.00,,,0.01,0,Wunderground v.1.15,2013-05-02 04:48:00,
2013-05-01 22:54:00,29.3,16.3,30.65,NNE,22,1.0,3.0,58,0.00,,,0.01,0,Wunderground v.1.15,2013-05-02 04:54:00,
2013-05-01 23:00:00,29.2,16.2,30.65,NNE,22,1.0,1.0,58,0.00,,,0.01,0,Wunderground v.1.15,2013-05-02 05:00:00,
2013-05-01 23:06:00,29.0,16.4,30.65,NNE,22,0.0,1.0,59,0.00,,,0.01,0,Wunderground v.1.15,2013-05-02 05:06:00,
2013-05-01 23:12:00,28.9,16.7,30.65,NNE,22,1.0,1.0,60,0.00,,,0.01,0,Wunderground v.1.15,2013-05-02 05:12:00,
2013-05-01 23:18:00,28.7,15.8,30.65,NNE,22,1.0,2.0,58,0.00,,,0.01,0,Wunderground v.1.15,2013-05-02 05:18:00,
2013-05-01 23:24:00,28.5,16.4,30.65,NNE,22,0.0,1.0,60,0.00,,,0.01,0,Wunderground v.1.15,2013-05-02 05:24:00,
2013-05-01 23:30:00,28.4,16.3,30.65,NNE,22,0.0,0.0,60,0.00,,,0.01,0,Wunderground v.1.15,2013-05-02 05:30:00,
2013-05-01 23:36:00,28.3,16.6,30.65,NNE,22,0.0,1.0,61,0.00,,,0.01,0,Wunderground v.1.15,2013-05-02 05:36:00,
2013-05-01 23:42:00,28.3,16.2,30.66,NNE,22,0.0,0.0,60,0.00,,,0.01,0,Wunderground v.1.15,2013-05-02 05:42:00,
2013-05-01 23:48:00,28.2,16.5,30.66,NNE,22,0.0,0.0,61,0.00,,,0.01,0,Wunderground v.1.15,2013-05-02 05:48:00,
2013-05-01 23:54:00,27.9,16.2,30.66,NNE,23,1.0,4.0,61,0.00,,,0.01,0,Wunderground v.1.15,2013-05-02 05:54:00,